sensor_id;sensor_type;location;lat;lon;timestamp;pressure;altitude;pressure_sealevel;temperature
14666;BMP280;7420;53.574;10.040;2022-10-17T00:00:27;101999.47;;;12.26
14666;BMP280;7420;53.574;10.040;2022-10-17T00:02:56;101997.53;;;12.20
14666;BMP280;7420;53.574;10.040;2022-10-17T00:05:22;101998.56;;;12.19
14666;BMP280;7420;53.574;10.040;2022-10-17T00:07:49;102000.16;;;12.14
14666;BMP280;7420;53.574;10.040;2022-10-17T00:10:14;102005.47;;;12.14
14666;BMP280;7420;53.574;10.040;2022-10-17T00:12:40;102011.03;;;12.19
14666;BMP280;7420;53.574;10.040;2022-10-17T00:15:06;102020.69;;;12.20
14666;BMP280;7420;53.574;10.040;2022-10-17T00:17:32;102027.31;;;12.24
14666;BMP280;7420;53.574;10.040;2022-10-17T00:19:58;102033.66;;;12.23
14666;BMP280;7420;53.574;10.040;2022-10-17T00:22:24;102036.41;;;12.29
14666;BMP280;7420;53.574;10.040;2022-10-17T00:24:49;102035.56;;;12.29
14666;BMP280;7420;53.574;10.040;2022-10-17T00:27:14;102036.78;;;12.26
14666;BMP280;7420;53.574;10.040;2022-10-17T00:29:40;102042.38;;;12.31
14666;BMP280;7420;53.574;10.040;2022-10-17T00:32:05;102030.34;;;12.35
14666;BMP280;7420;53.574;10.040;2022-10-17T00:34:30;102034.19;;;12.33
14666;BMP280;7420;53.574;10.040;2022-10-17T00:36:56;102029.50;;;12.35
14666;BMP280;7420;53.574;10.040;2022-10-17T00:39:21;102033.19;;;12.34
14666;BMP280;7420;53.574;10.040;2022-10-17T00:41:47;102032.34;;;12.33
14666;BMP280;7420;53.574;10.040;2022-10-17T00:46:53;102028.25;;;12.16
14666;BMP280;7420;53.574;10.040;2022-10-17T00:49:19;102031.09;;;12.29
14666;BMP280;7420;53.574;10.040;2022-10-17T00:52:20;102037.69;;;12.33
14666;BMP280;7420;53.574;10.040;2022-10-17T00:54:41;102040.16;;;12.35
14666;BMP280;7420;53.574;10.040;2022-10-17T00:57:08;102033.00;;;12.35
14666;BMP280;7420;53.574;10.040;2022-10-17T00:59:35;102036.91;;;12.39
14666;BMP280;7420;53.574;10.040;2022-10-17T01:02:08;102033.59;;;12.37
14666;BMP280;7420;53.574;10.040;2022-10-17T01:04:38;102047.56;;;12.39
14666;BMP280;7420;53.574;10.040;2022-10-17T01:07:04;102044.91;;;12.39
14666;BMP280;7420;53.574;10.040;2022-10-17T01:09:29;102048.59;;;12.38
14666;BMP280;7420;53.574;10.040;2022-10-17T01:12:24;102058.25;;;12.39
14666;BMP280;7420;53.574;10.040;2022-10-17T01:15:06;102064.44;;;12.40
14666;BMP280;7420;53.574;10.040;2022-10-17T01:17:44;102054.56;;;12.40
14666;BMP280;7420;53.574;10.040;2022-10-17T01:26:04;102048.84;;;12.43
14666;BMP280;7420;53.574;10.040;2022-10-17T01:31:15;102037.81;;;12.46
14666;BMP280;7420;53.574;10.040;2022-10-17T01:34:13;102045.38;;;12.43
14666;BMP280;7420;53.574;10.040;2022-10-17T01:36:52;102043.53;;;12.43
14666;BMP280;7420;53.574;10.040;2022-10-17T01:42:21;102044.81;;;12.47
14666;BMP280;7420;53.574;10.040;2022-10-17T01:44:53;102034.50;;;12.44
14666;BMP280;7420;53.574;10.040;2022-10-17T01:47:23;102039.03;;;12.44
14666;BMP280;7420;53.574;10.040;2022-10-17T01:49:53;102033.13;;;12.48
14666;BMP280;7420;53.574;10.040;2022-10-17T01:52:26;102033.38;;;12.53
14666;BMP280;7420;53.574;10.040;2022-10-17T01:54:56;102022.19;;;12.43
14666;BMP280;7420;53.574;10.040;2022-10-17T01:57:39;102019.72;;;12.42
14666;BMP280;7420;53.574;10.040;2022-10-17T02:00:11;102011.09;;;12.40
14666;BMP280;7420;53.574;10.040;2022-10-17T02:02:38;102017.97;;;12.49
14666;BMP280;7420;53.574;10.040;2022-10-17T02:05:05;102019.41;;;12.51
14666;BMP280;7420;53.574;10.040;2022-10-17T02:07:30;102017.81;;;12.57
14666;BMP280;7420;53.574;10.040;2022-10-17T02:09:56;102010.78;;;12.49
14666;BMP280;7420;53.574;10.040;2022-10-17T02:12:44;102002.00;;;12.55
14666;BMP280;7420;53.574;10.040;2022-10-17T02:20:56;102002.38;;;12.52
14666;BMP280;7420;53.574;10.040;2022-10-17T02:29:16;101999.59;;;12.60
14666;BMP280;7420;53.574;10.040;2022-10-17T02:34:26;101986.34;;;12.46
14666;BMP280;7420;53.574;10.040;2022-10-17T02:36:57;101976.47;;;12.46
14666;BMP280;7420;53.574;10.040;2022-10-17T02:39:24;101983.09;;;12.50
14666;BMP280;7420;53.574;10.040;2022-10-17T02:41:51;101977.63;;;12.58
14666;BMP280;7420;53.574;10.040;2022-10-17T02:44:19;101961.88;;;12.63
14666;BMP280;7420;53.574;10.040;2022-10-17T02:46:51;101968.28;;;12.68
14666;BMP280;7420;53.574;10.040;2022-10-17T02:49:26;101969.13;;;12.69
14666;BMP280;7420;53.574;10.040;2022-10-17T02:52:01;101970.75;;;12.70
14666;BMP280;7420;53.574;10.040;2022-10-17T02:54:39;101961.75;;;12.71
14666;BMP280;7420;53.574;10.040;2022-10-17T02:57:09;101951.38;;;12.61
14666;BMP280;7420;53.574;10.040;2022-10-17T02:59:36;101957.47;;;12.56
14666;BMP280;7420;53.574;10.040;2022-10-17T03:02:05;101954.63;;;12.57
14666;BMP280;7420;53.574;10.040;2022-10-17T03:04:31;101952.41;;;12.60
14666;BMP280;7420;53.574;10.040;2022-10-17T03:06:56;101940.16;;;12.66
14666;BMP280;7420;53.574;10.040;2022-10-17T03:09:22;101937.28;;;12.67
14666;BMP280;7420;53.574;10.040;2022-10-17T03:11:47;101935.84;;;12.65
14666;BMP280;7420;53.574;10.040;2022-10-17T03:14:12;101953.09;;;12.69
14666;BMP280;7420;53.574;10.040;2022-10-17T03:16:37;101951.47;;;12.68
14666;BMP280;7420;53.574;10.040;2022-10-17T03:19:03;101937.53;;;12.72
14666;BMP280;7420;53.574;10.040;2022-10-17T03:21:28;101935.88;;;12.71
14666;BMP280;7420;53.574;10.040;2022-10-17T03:23:54;101933.59;;;12.68
14666;BMP280;7420;53.574;10.040;2022-10-17T03:26:19;101932.16;;;12.66
14666;BMP280;7420;53.574;10.040;2022-10-17T03:28:45;101936.63;;;12.65
14666;BMP280;7420;53.574;10.040;2022-10-17T03:31:14;101928.72;;;12.72
14666;BMP280;7420;53.574;10.040;2022-10-17T03:33:39;101933.44;;;12.76
14666;BMP280;7420;53.574;10.040;2022-10-17T03:36:07;101927.28;;;12.76
14666;BMP280;7420;53.574;10.040;2022-10-17T03:38:33;101933.88;;;12.80
14666;BMP280;7420;53.574;10.040;2022-10-17T03:40:58;101930.56;;;12.78
14666;BMP280;7420;53.574;10.040;2022-10-17T03:43:23;101935.09;;;12.77
14666;BMP280;7420;53.574;10.040;2022-10-17T03:45:49;101942.47;;;12.75
14666;BMP280;7420;53.574;10.040;2022-10-17T03:48:14;101940.56;;;12.69
14666;BMP280;7420;53.574;10.040;2022-10-17T03:50:39;101935.38;;;12.61
14666;BMP280;7420;53.574;10.040;2022-10-17T03:53:04;101930.03;;;12.61
14666;BMP280;7420;53.574;10.040;2022-10-17T03:55:30;101935.84;;;12.65
14666;BMP280;7420;53.574;10.040;2022-10-17T03:57:55;101932.91;;;12.60
14666;BMP280;7420;53.574;10.040;2022-10-17T04:00:20;101934.31;;;12.56
14666;BMP280;7420;53.574;10.040;2022-10-17T04:02:46;101930.41;;;12.58
14666;BMP280;7420;53.574;10.040;2022-10-17T04:05:11;101926.56;;;12.61
14666;BMP280;7420;53.574;10.040;2022-10-17T04:07:36;101922.25;;;12.60
14666;BMP280;7420;53.574;10.040;2022-10-17T04:10:03;101918.09;;;12.57
14666;BMP280;7420;53.574;10.040;2022-10-17T04:12:28;101933.09;;;12.58
14666;BMP280;7420;53.574;10.040;2022-10-17T04:14:53;101927.53;;;12.54
14666;BMP280;7420;53.574;10.040;2022-10-17T04:17:19;101930.00;;;12.55
14666;BMP280;7420;53.574;10.040;2022-10-17T04:19:44;101927.91;;;12.51
14666;BMP280;7420;53.574;10.040;2022-10-17T04:22:09;101929.09;;;12.48
14666;BMP280;7420;53.574;10.040;2022-10-17T04:24:35;101933.16;;;12.44
14666;BMP280;7420;53.574;10.040;2022-10-17T04:27:00;101929.31;;;12.47
14666;BMP280;7420;53.574;10.040;2022-10-17T04:29:26;101927.19;;;12.42
14666;BMP280;7420;53.574;10.040;2022-10-17T04:31:51;101923.53;;;12.43
14666;BMP280;7420;53.574;10.040;2022-10-17T04:34:17;101927.47;;;12.47
14666;BMP280;7420;53.574;10.040;2022-10-17T04:36:42;101923.78;;;12.48
14666;BMP280;7420;53.574;10.040;2022-10-17T04:39:07;101906.88;;;12.41
14666;BMP280;7420;53.574;10.040;2022-10-17T04:41:33;101914.63;;;12.36
14666;BMP280;7420;53.574;10.040;2022-10-17T04:43:58;101919.59;;;12.39
14666;BMP280;7420;53.574;10.040;2022-10-17T04:46:23;101909.72;;;12.33
14666;BMP280;7420;53.574;10.040;2022-10-17T04:48:49;101909.72;;;12.33
14666;BMP280;7420;53.574;10.040;2022-10-17T04:51:17;101901.47;;;12.28
14666;BMP280;7420;53.574;10.040;2022-10-17T04:53:44;101907.22;;;12.32
14666;BMP280;7420;53.574;10.040;2022-10-17T04:56:14;101901.06;;;12.31
14666;BMP280;7420;53.574;10.040;2022-10-17T04:58:41;101901.19;;;12.23
14666;BMP280;7420;53.574;10.040;2022-10-17T05:01:09;101906.91;;;12.20
14666;BMP280;7420;53.574;10.040;2022-10-17T05:03:35;101909.19;;;12.23
14666;BMP280;7420;53.574;10.040;2022-10-17T05:06:09;101903.88;;;12.23
14666;BMP280;7420;53.574;10.040;2022-10-17T05:08:34;101904.63;;;12.17
14666;BMP280;7420;53.574;10.040;2022-10-17T05:11:00;101904.09;;;12.07
14666;BMP280;7420;53.574;10.040;2022-10-17T05:13:26;101898.97;;;12.06
14666;BMP280;7420;53.574;10.040;2022-10-17T05:15:51;101912.09;;;12.07
14666;BMP280;7420;53.574;10.040;2022-10-17T05:18:17;101908.16;;;12.03
14666;BMP280;7420;53.574;10.040;2022-10-17T05:20:42;101910.66;;;12.05
14666;BMP280;7420;53.574;10.040;2022-10-17T05:23:07;101907.66;;;11.93
14666;BMP280;7420;53.574;10.040;2022-10-17T05:25:33;101900.69;;;11.92
14666;BMP280;7420;53.574;10.040;2022-10-17T05:27:58;101902.97;;;11.95
14666;BMP280;7420;53.574;10.040;2022-10-17T05:30:24;101903.53;;;11.91
14666;BMP280;7420;53.574;10.040;2022-10-17T05:32:53;101899.03;;;11.91
14666;BMP280;7420;53.574;10.040;2022-10-17T05:35:19;101906.19;;;11.91
14666;BMP280;7420;53.574;10.040;2022-10-17T05:37:44;101909.06;;;11.89
14666;BMP280;7420;53.574;10.040;2022-10-17T05:40:10;101905.94;;;11.86
14666;BMP280;7420;53.574;10.040;2022-10-17T05:42:35;101903.63;;;11.83
14666;BMP280;7420;53.574;10.040;2022-10-17T05:45:01;101905.66;;;11.95
14666;BMP280;7420;53.574;10.040;2022-10-17T05:47:26;101901.38;;;12.01
14666;BMP280;7420;53.574;10.040;2022-10-17T05:49:51;101896.31;;;12.06
14666;BMP280;7420;53.574;10.040;2022-10-17T05:52:17;101902.28;;;12.08
14666;BMP280;7420;53.574;10.040;2022-10-17T05:54:42;101905.50;;;12.03
14666;BMP280;7420;53.574;10.040;2022-10-17T05:57:07;101897.97;;;12.07
14666;BMP280;7420;53.574;10.040;2022-10-17T05:59:33;101905.50;;;12.03
14666;BMP280;7420;53.574;10.040;2022-10-17T06:01:58;101904.06;;;12.01
14666;BMP280;7420;53.574;10.040;2022-10-17T06:04:24;101905.25;;;11.98
14666;BMP280;7420;53.574;10.040;2022-10-17T06:06:52;101906.47;;;11.96
14666;BMP280;7420;53.574;10.040;2022-10-17T06:09:17;101913.50;;;12.03
14666;BMP280;7420;53.574;10.040;2022-10-17T06:11:42;101910.56;;;11.98
14666;BMP280;7420;53.574;10.040;2022-10-17T06:14:08;101916.31;;;11.95
14666;BMP280;7420;53.574;10.040;2022-10-17T06:16:33;101908.91;;;11.97
14666;BMP280;7420;53.574;10.040;2022-10-17T06:18:59;101908.91;;;11.97
14666;BMP280;7420;53.574;10.040;2022-10-17T06:21:25;101903.59;;;11.97
14666;BMP280;7420;53.574;10.040;2022-10-17T06:23:52;101905.25;;;11.98
14666;BMP280;7420;53.574;10.040;2022-10-17T06:26:18;101899.16;;;12.04
14666;BMP280;7420;53.574;10.040;2022-10-17T06:28:43;101896.75;;;12.09
14666;BMP280;7420;53.574;10.040;2022-10-17T06:31:14;101891.88;;;12.13
14666;BMP280;7420;53.574;10.040;2022-10-17T06:33:40;101897.66;;;12.16
14666;BMP280;7420;53.574;10.040;2022-10-17T06:36:06;101892.38;;;12.23
14666;BMP280;7420;53.574;10.040;2022-10-17T06:38:34;101902.00;;;12.24
14666;BMP280;7420;53.574;10.040;2022-10-17T06:41:05;101892.06;;;12.32
14666;BMP280;7420;53.574;10.040;2022-10-17T06:43:35;101890.84;;;12.35
14666;BMP280;7420;53.574;10.040;2022-10-17T06:46:01;101890.06;;;12.41
14666;BMP280;7420;53.574;10.040;2022-10-17T06:48:26;101882.50;;;12.44
14666;BMP280;7420;53.574;10.040;2022-10-17T06:50:52;101892.03;;;12.53
14666;BMP280;7420;53.574;10.040;2022-10-17T06:53:17;101896.13;;;12.56
14666;BMP280;7420;53.574;10.040;2022-10-17T06:55:42;101902.56;;;12.61
14666;BMP280;7420;53.574;10.040;2022-10-17T06:58:07;101898.50;;;12.65
14666;BMP280;7420;53.574;10.040;2022-10-17T07:00:36;101896.88;;;12.70
14666;BMP280;7420;53.574;10.040;2022-10-17T07:03:01;101889.53;;;12.79
14666;BMP280;7420;53.574;10.040;2022-10-17T07:05:26;101906.03;;;12.89
14666;BMP280;7420;53.574;10.040;2022-10-17T07:07:51;101902.00;;;12.93
14666;BMP280;7420;53.574;10.040;2022-10-17T07:10:17;101907.59;;;13.04
14666;BMP280;7420;53.574;10.040;2022-10-17T07:12:42;101895.53;;;13.15
14666;BMP280;7420;53.574;10.040;2022-10-17T07:15:10;101892.72;;;13.23
14666;BMP280;7420;53.574;10.040;2022-10-17T07:17:35;101903.25;;;13.31
14666;BMP280;7420;53.574;10.040;2022-10-17T07:20:00;101908.03;;;13.42
14666;BMP280;7420;53.574;10.040;2022-10-17T07:22:26;101914.81;;;13.44
14666;BMP280;7420;53.574;10.040;2022-10-17T07:24:51;101924.09;;;13.55
14666;BMP280;7420;53.574;10.040;2022-10-17T07:27:16;101916.94;;;13.62
14666;BMP280;7420;53.574;10.040;2022-10-17T07:29:42;101921.47;;;13.68
14666;BMP280;7420;53.574;10.040;2022-10-17T07:32:07;101933.44;;;13.78
14666;BMP280;7420;53.574;10.040;2022-10-17T07:34:36;101939.22;;;13.88
14666;BMP280;7420;53.574;10.040;2022-10-17T07:37:01;101927.28;;;13.84
14666;BMP280;7420;53.574;10.040;2022-10-17T07:39:27;101925.69;;;13.89
14666;BMP280;7420;53.574;10.040;2022-10-17T07:41:53;101928.56;;;13.94
14666;BMP280;7420;53.574;10.040;2022-10-17T07:44:18;101923.47;;;14.06
14666;BMP280;7420;53.574;10.040;2022-10-17T07:46:43;101929.22;;;14.09
14666;BMP280;7420;53.574;10.040;2022-10-17T07:49:09;101927.56;;;14.08
14666;BMP280;7420;53.574;10.040;2022-10-17T07:51:34;101920.41;;;14.15
14666;BMP280;7420;53.574;10.040;2022-10-17T07:53:59;101921.69;;;14.39
14666;BMP280;7420;53.574;10.040;2022-10-17T07:56:25;101934.03;;;14.46
14666;BMP280;7420;53.574;10.040;2022-10-17T07:58:51;101940.84;;;14.55
14666;BMP280;7420;53.574;10.040;2022-10-17T08:01:17;101931.75;;;14.82
14666;BMP280;7420;53.574;10.040;2022-10-17T08:03:43;101930.53;;;14.91
14666;BMP280;7420;53.574;10.040;2022-10-17T08:06:09;101936.28;;;15.01
14666;BMP280;7420;53.574;10.040;2022-10-17T08:08:34;101932.59;;;14.89
14666;BMP280;7420;53.574;10.040;2022-10-17T08:11:02;101928.88;;;15.03
14666;BMP280;7420;53.574;10.040;2022-10-17T08:13:28;101919.75;;;15.23
14666;BMP280;7420;53.574;10.040;2022-10-17T08:15:58;101919.56;;;15.18
14666;BMP280;7420;53.574;10.040;2022-10-17T08:18:23;101918.31;;;15.21
14666;BMP280;7420;53.574;10.040;2022-10-17T08:20:48;101921.81;;;15.15
14666;BMP280;7420;53.574;10.040;2022-10-17T08:23:14;101919.75;;;15.23
14666;BMP280;7420;53.574;10.040;2022-10-17T08:25:39;101912.16;;;15.27
14666;BMP280;7420;53.574;10.040;2022-10-17T08:28:05;101911.09;;;15.41
14666;BMP280;7420;53.574;10.040;2022-10-17T08:30:30;101909.03;;;15.43
14666;BMP280;7420;53.574;10.040;2022-10-17T08:32:56;101903.03;;;15.41
14666;BMP280;7420;53.574;10.040;2022-10-17T08:35:21;101896.38;;;15.56
14666;BMP280;7420;53.574;10.040;2022-10-17T08:37:46;101893.66;;;15.63
14666;BMP280;7420;53.574;10.040;2022-10-17T08:40:24;101893.81;;;15.74
14666;BMP280;7420;53.574;10.040;2022-10-17T08:42:55;101896.06;;;15.77
14666;BMP280;7420;53.574;10.040;2022-10-17T08:45:37;101885.53;;;15.82
14666;BMP280;7420;53.574;10.040;2022-10-17T08:48:07;101886.97;;;15.78
14666;BMP280;7420;53.574;10.040;2022-10-17T08:50:38;101893.50;;;15.89
14666;BMP280;7420;53.574;10.040;2022-10-17T08:53:19;101890.59;;;15.97
14666;BMP280;7420;53.574;10.040;2022-10-17T08:55:47;101883.13;;;16.05
14666;BMP280;7420;53.574;10.040;2022-10-17T09:00:47;101886.38;;;16.13
14666;BMP280;7420;53.574;10.040;2022-10-17T09:06:21;101908.31;;;16.35
14666;BMP280;7420;53.574;10.040;2022-10-17T09:11:32;101911.81;;;16.84
14666;BMP280;7420;53.574;10.040;2022-10-17T09:14:06;101906.53;;;16.78
14666;BMP280;7420;53.574;10.040;2022-10-17T09:16:56;101909.47;;;17.12
14666;BMP280;7420;53.574;10.040;2022-10-17T09:19:34;101902.44;;;17.11
14666;BMP280;7420;53.574;10.040;2022-10-17T09:22:05;101897.66;;;16.95
14666;BMP280;7420;53.574;10.040;2022-10-17T09:24:39;101887.53;;;17.15
14666;BMP280;7420;53.574;10.040;2022-10-17T09:27:37;101901.94;;;17.21
14666;BMP280;7420;53.574;10.040;2022-10-17T09:32:40;101906.53;;;17.38
14666;BMP280;7420;53.574;10.040;2022-10-17T09:35:11;101906.44;;;17.44
14666;BMP280;7420;53.574;10.040;2022-10-17T09:37:37;101909.19;;;17.56
14666;BMP280;7420;53.574;10.040;2022-10-17T09:40:06;101918.84;;;17.63
14666;BMP280;7420;53.574;10.040;2022-10-17T09:42:33;101912.03;;;17.61
14666;BMP280;7420;53.574;10.040;2022-10-17T09:45:19;101895.00;;;17.67
14666;BMP280;7420;53.574;10.040;2022-10-17T09:48:18;101900.22;;;17.80
14666;BMP280;7420;53.574;10.040;2022-10-17T09:50:46;101900.00;;;17.93
14666;BMP280;7420;53.574;10.040;2022-10-17T09:53:21;101896.09;;;18.07
14666;BMP280;7420;53.574;10.040;2022-10-17T09:55:54;101900.81;;;18.23
14666;BMP280;7420;53.574;10.040;2022-10-17T09:58:22;101892.44;;;18.31
14666;BMP280;7420;53.574;10.040;2022-10-17T10:00:48;101884.72;;;18.34
14666;BMP280;7420;53.574;10.040;2022-10-17T10:03:19;101891.75;;;18.35
14666;BMP280;7420;53.574;10.040;2022-10-17T10:06:08;101894.47;;;18.47
14666;BMP280;7420;53.574;10.040;2022-10-17T10:08:47;101894.94;;;18.55
14666;BMP280;7420;53.574;10.040;2022-10-17T10:11:18;101902.41;;;18.64
14666;BMP280;7420;53.574;10.040;2022-10-17T10:13:46;101897.28;;;18.74
14666;BMP280;7420;53.574;10.040;2022-10-17T10:16:18;101898.25;;;18.80
14666;BMP280;7420;53.574;10.040;2022-10-17T10:18:45;101909.22;;;18.90
14666;BMP280;7420;53.574;10.040;2022-10-17T10:21:16;101905.25;;;18.92
14666;BMP280;7420;53.574;10.040;2022-10-17T10:26:39;101909.00;;;19.14
14666;BMP280;7420;53.574;10.040;2022-10-17T10:29:28;101915.69;;;19.23
14666;BMP280;7420;53.574;10.040;2022-10-17T10:31:57;101912.84;;;19.30
14666;BMP280;7420;53.574;10.040;2022-10-17T10:34:30;101909.91;;;19.43
14666;BMP280;7420;53.574;10.040;2022-10-17T10:37:00;101917.28;;;19.47
14666;BMP280;7420;53.574;10.040;2022-10-17T10:39:34;101911.03;;;19.58
14666;BMP280;7420;53.574;10.040;2022-10-17T10:42:01;101916.69;;;19.57
14666;BMP280;7420;53.574;10.040;2022-10-17T10:44:29;101905.53;;;19.53
14666;BMP280;7420;53.574;10.040;2022-10-17T10:47:26;101901.19;;;19.52
14666;BMP280;7420;53.574;10.040;2022-10-17T10:50:04;101903.19;;;19.45
14666;BMP280;7420;53.574;10.040;2022-10-17T10:52:55;101907.91;;;19.50
14666;BMP280;7420;53.574;10.040;2022-10-17T10:55:27;101905.91;;;19.45
14666;BMP280;7420;53.574;10.040;2022-10-17T10:57:58;101900.50;;;19.45
14666;BMP280;7420;53.574;10.040;2022-10-17T11:00:26;101911.06;;;19.47
14666;BMP280;7420;53.574;10.040;2022-10-17T11:02:58;101914.25;;;19.44
14666;BMP280;7420;53.574;10.040;2022-10-17T11:08:39;101938.50;;;19.44
14666;BMP280;7420;53.574;10.040;2022-10-17T11:14:31;101915.03;;;19.56
14666;BMP280;7420;53.574;10.040;2022-10-17T11:22:48;101913.41;;;19.82
14666;BMP280;7420;53.574;10.040;2022-10-17T11:27:57;101919.56;;;20.06
14666;BMP280;7420;53.574;10.040;2022-10-17T11:30:26;101912.03;;;20.08
14666;BMP280;7420;53.574;10.040;2022-10-17T11:32:55;101933.63;;;20.08
14666;BMP280;7420;53.574;10.040;2022-10-17T11:35:26;101929.50;;;20.17
14666;BMP280;7420;53.574;10.040;2022-10-17T11:38:11;101930.63;;;20.21
14666;BMP280;7420;53.574;10.040;2022-10-17T11:40:41;101922.88;;;20.24
14666;BMP280;7420;53.574;10.040;2022-10-17T11:43:24;101916.16;;;20.27
14666;BMP280;7420;53.574;10.040;2022-10-17T11:45:55;101910.28;;;20.30
14666;BMP280;7420;53.574;10.040;2022-10-17T11:48:29;101902.66;;;20.27
14666;BMP280;7420;53.574;10.040;2022-10-17T11:51:10;101900.94;;;20.21
14666;BMP280;7420;53.574;10.040;2022-10-17T11:53:50;101897.91;;;20.17
14666;BMP280;7420;53.574;10.040;2022-10-17T11:56:28;101895.69;;;20.14
14666;BMP280;7420;53.574;10.040;2022-10-17T12:01:47;101883.91;;;20.04
14666;BMP280;7420;53.574;10.040;2022-10-17T12:04:38;101916.63;;;19.96
14666;BMP280;7420;53.574;10.040;2022-10-17T12:07:16;101953.31;;;19.80
14666;BMP280;7420;53.574;10.040;2022-10-17T12:09:55;101948.78;;;19.58
14666;BMP280;7420;53.574;10.040;2022-10-17T12:12:25;101946.25;;;19.40
14666;BMP280;7420;53.574;10.040;2022-10-17T12:14:50;101951.06;;;19.27
14666;BMP280;7420;53.574;10.040;2022-10-17T12:17:33;101953.63;;;19.10
14666;BMP280;7420;53.574;10.040;2022-10-17T12:22:53;101981.88;;;18.96
14666;BMP280;7420;53.574;10.040;2022-10-17T12:25:21;101979.41;;;18.95
14666;BMP280;7420;53.574;10.040;2022-10-17T12:27:48;101983.38;;;18.81
14666;BMP280;7420;53.574;10.040;2022-10-17T12:30:21;101978.66;;;18.76
14666;BMP280;7420;53.574;10.040;2022-10-17T12:33:03;101971.19;;;18.78
14666;BMP280;7420;53.574;10.040;2022-10-17T12:35:31;101970.38;;;18.89
14666;BMP280;7420;53.574;10.040;2022-10-17T12:45:50;101964.41;;;18.99
14666;BMP280;7420;53.574;10.040;2022-10-17T12:51:13;101973.19;;;18.94
14666;BMP280;7420;53.574;10.040;2022-10-17T12:56:11;101984.44;;;18.91
14666;BMP280;7420;53.574;10.040;2022-10-17T12:58:42;101992.53;;;18.91
14666;BMP280;7420;53.574;10.040;2022-10-17T13:01:14;101970.47;;;18.83
14666;BMP280;7420;53.574;10.040;2022-10-17T13:03:46;101988.78;;;18.81
14666;BMP280;7420;53.574;10.040;2022-10-17T13:06:24;101997.53;;;18.76
14666;BMP280;7420;53.574;10.040;2022-10-17T13:09:27;101995.53;;;18.72
14666;BMP280;7420;53.574;10.040;2022-10-17T13:11:54;101996.81;;;18.69
14666;BMP280;7420;53.574;10.040;2022-10-17T13:14:22;102020.91;;;18.64
14666;BMP280;7420;53.574;10.040;2022-10-17T13:17:00;102055.81;;;18.59
14666;BMP280;7420;53.574;10.040;2022-10-17T13:19:30;102061.28;;;18.53
14666;BMP280;7420;53.574;10.040;2022-10-17T13:21:58;102037.41;;;18.27
14666;BMP280;7420;53.574;10.040;2022-10-17T13:24:37;102030.00;;;18.23
14666;BMP280;7420;53.574;10.040;2022-10-17T13:27:05;102016.81;;;18.03
14666;BMP280;7420;53.574;10.040;2022-10-17T13:29:30;102000.38;;;17.93
14666;BMP280;7420;53.574;10.040;2022-10-17T13:32:03;102001.78;;;17.96
14666;BMP280;7420;53.574;10.040;2022-10-17T13:34:30;102008.44;;;17.93
14666;BMP280;7420;53.574;10.040;2022-10-17T13:37:04;102019.84;;;17.89
14666;BMP280;7420;53.574;10.040;2022-10-17T13:39:33;102026.31;;;17.70
14666;BMP280;7420;53.574;10.040;2022-10-17T13:42:00;102022.66;;;17.64
14666;BMP280;7420;53.574;10.040;2022-10-17T13:44:28;102020.78;;;17.65
14666;BMP280;7420;53.574;10.040;2022-10-17T13:46:57;102032.41;;;17.59
14666;BMP280;7420;53.574;10.040;2022-10-17T13:51:49;102055.84;;;17.52
14666;BMP280;7420;53.574;10.040;2022-10-17T13:56:55;102068.31;;;17.46
14666;BMP280;7420;53.574;10.040;2022-10-17T13:59:23;102067.97;;;17.43
14666;BMP280;7420;53.574;10.040;2022-10-17T14:01:49;102076.03;;;17.43
14666;BMP280;7420;53.574;10.040;2022-10-17T14:04:16;102055.56;;;17.42
14666;BMP280;7420;53.574;10.040;2022-10-17T14:06:43;102049.56;;;17.40
14666;BMP280;7420;53.574;10.040;2022-10-17T14:09:27;102038.38;;;17.43
14666;BMP280;7420;53.574;10.040;2022-10-17T14:12:09;102046.28;;;17.38
14666;BMP280;7420;53.574;10.040;2022-10-17T14:14:36;102044.19;;;17.40
14666;BMP280;7420;53.574;10.040;2022-10-17T14:17:02;102035.75;;;17.36
14666;BMP280;7420;53.574;10.040;2022-10-17T14:19:36;102033.00;;;17.43
14666;BMP280;7420;53.574;10.040;2022-10-17T14:22:25;102019.78;;;17.41
14666;BMP280;7420;53.574;10.040;2022-10-17T14:24:51;102020.19;;;17.45
14666;BMP280;7420;53.574;10.040;2022-10-17T14:27:50;102010.50;;;17.37
14666;BMP280;7420;53.574;10.040;2022-10-17T14:32:54;102016.72;;;17.38
14666;BMP280;7420;53.574;10.040;2022-10-17T14:35:20;102028.53;;;17.37
14666;BMP280;7420;53.574;10.040;2022-10-17T14:37:50;102026.88;;;17.36
14666;BMP280;7420;53.574;10.040;2022-10-17T14:40:20;102045.28;;;17.33
14666;BMP280;7420;53.574;10.040;2022-10-17T14:42:47;102058.53;;;17.34
14666;BMP280;7420;53.574;10.040;2022-10-17T14:45:19;102064.09;;;17.33
14666;BMP280;7420;53.574;10.040;2022-10-17T14:47:50;102066.78;;;17.33
14666;BMP280;7420;53.574;10.040;2022-10-17T14:50:27;102073.84;;;17.27
14666;BMP280;7420;53.574;10.040;2022-10-17T14:55:54;102101.75;;;17.26
14666;BMP280;7420;53.574;10.040;2022-10-17T14:58:23;102108.78;;;17.27
14666;BMP280;7420;53.574;10.040;2022-10-17T15:00:49;102118.13;;;17.25
14666;BMP280;7420;53.574;10.040;2022-10-17T15:03:14;102119.97;;;17.24
14666;BMP280;7420;53.574;10.040;2022-10-17T15:05:43;102120.81;;;17.25
14666;BMP280;7420;53.574;10.040;2022-10-17T15:08:13;102113.97;;;17.22
14666;BMP280;7420;53.574;10.040;2022-10-17T15:10:39;102115.63;;;17.23
14666;BMP280;7420;53.574;10.040;2022-10-17T15:13:06;102119.97;;;17.24
14666;BMP280;7420;53.574;10.040;2022-10-17T15:15:32;102128.03;;;17.24
14666;BMP280;7420;53.574;10.040;2022-10-17T15:17:58;102130.03;;;17.28
14666;BMP280;7420;53.574;10.040;2022-10-17T15:20:25;102137.72;;;17.25
14666;BMP280;7420;53.574;10.040;2022-10-17T15:22:52;102135.72;;;17.21
14666;BMP280;7420;53.574;10.040;2022-10-17T15:25:18;102135.91;;;17.19
14666;BMP280;7420;53.574;10.040;2022-10-17T15:27:43;102149.34;;;17.19
14666;BMP280;7420;53.574;10.040;2022-10-17T15:30:25;102151.84;;;17.14
14666;BMP280;7420;53.574;10.040;2022-10-17T15:32:51;102145.69;;;17.14
14666;BMP280;7420;53.574;10.040;2022-10-17T15:35:18;102145.28;;;17.10